Time;durP1;ratioP1;P1;durP2;ratioP2;P2;SDS_P1;SDS_P2;PMS_P1;PMS_P2;Temp;Humidity;BMP_temperature;BMP_pressure;BME280_temperature;BME280_humidity;BME280_pressure;Samples;Min_cycle;Max_cycle;Signal;HPM_P1;HPM_P2
2021/01/12 00:01:42;;;;;;;158.75;40.25;;;0.40;2201.60;;;;;;6097580;23;20287;-68
2021/01/12 00:04:09;;;;;;;149.75;39.75;;;0.40;2201.60;;;;;;6096851;23;20305;-69
2021/01/12 00:06:35;;;;;;;168.35;40.10;;;0.40;2201.60;;;;;;6096848;23;19994;-70
2021/01/12 00:09:00;;;;;;;167.55;38.65;;;0.40;2201.60;;;;;;6096692;23;20062;-69
2021/01/12 00:11:26;;;;;;;162.20;37.03;;;0.60;2201.60;;;;;;6096981;23;20386;-68
2021/01/12 00:13:52;;;;;;;138.63;35.72;;;0.50;2201.60;;;;;;6097311;23;20311;-69
2021/01/12 00:16:20;;;;;;;154.65;39.20;;;0.40;2201.60;;;;;;6097329;23;20129;-69
2021/01/12 00:18:49;;;;;;;153.80;37.85;;;0.40;2201.60;;;;;;6097359;23;20001;-69
2021/01/12 00:21:15;;;;;;;136.10;36.60;;;0.40;2201.60;;;;;;6097482;23;20005;-69
2021/01/12 00:23:41;;;;;;;151.50;39.25;;;0.40;2201.60;;;;;;6096862;23;20008;-71
2021/01/12 00:26:10;;;;;;;154.10;39.35;;;0.50;2201.60;;;;;;6097307;23;20033;-68
2021/01/12 00:28:36;;;;;;;;;;;0.40;2201.60;;;;;;6097788;23;19995;-70
2021/01/12 00:31:04;;;;;;;135.27;35.53;;;0.50;2201.60;;;;;;6096208;23;20221;-70
2021/01/12 00:33:31;;;;;;;163.13;39.35;;;0.40;2201.60;;;;;;6096927;23;19998;-68
2021/01/12 00:35:57;;;;;;;144.40;38.50;;;0.50;2201.60;;;;;;6096929;23;20006;-68
2021/01/12 00:38:22;;;;;;;144.98;39.95;;;0.50;2201.60;;;;;;6096162;23;20037;-68
2021/01/12 00:40:48;;;;;;;149.38;39.20;;;0.50;2201.60;;;;;;6096871;23;20334;-69
2021/01/12 00:43:14;;;;;;;150.07;41.28;;;0.50;2201.60;;;;;;6096281;23;20533;-68
2021/01/12 00:45:39;;;;;;;126.03;37.03;;;0.50;2201.60;;;;;;6096586;23;20006;-69
2021/01/12 00:48:06;;;;;;;146.90;37.88;;;0.50;2201.60;;;;;;6096936;23;20046;-69
2021/01/12 00:50:32;;;;;;;126.25;36.78;;;0.50;2201.60;;;;;;6096686;23;19998;-69
2021/01/12 00:52:57;;;;;;;143.65;38.90;;;0.60;2201.60;;;;;;6095748;23;20501;-68
2021/01/12 00:55:23;;;;;;;143.18;40.08;;;0.60;2201.60;;;;;;6096709;23;20021;-69
2021/01/12 00:57:49;;;;;;;150.85;37.22;;;0.60;2201.60;;;;;;6096742;23;19998;-69
2021/01/12 01:00:15;;;;;;;125.63;38.67;;;0.70;2201.60;;;;;;6096340;23;19998;-69
2021/01/12 01:02:41;;;;;;;116.63;36.60;;;0.70;2201.60;;;;;;6096659;23;20002;-69
2021/01/12 01:05:07;;;;;;;147.63;39.55;;;0.70;2201.60;;;;;;6096880;23;20002;-70
2021/01/12 01:07:33;;;;;;;162.15;39.42;;;0.70;2201.60;;;;;;6096471;23;19999;-68
2021/01/12 01:09:59;;;;;;;142.25;38.92;;;0.80;2201.60;;;;;;6096225;23;20305;-68
2021/01/12 01:12:25;;;;;;;167.77;40.83;;;0.80;2201.60;;;;;;6096580;23;20052;-69
2021/01/12 01:14:51;;;;;;;147.13;40.72;;;0.80;2201.60;;;;;;6096788;23;20615;-69
2021/01/12 01:17:16;;;;;;;166.30;37.33;;;0.80;2201.60;;;;;;6096915;23;20382;-68
2021/01/12 01:19:42;;;;;;;188.93;40.17;;;0.70;2201.60;;;;;;6096265;23;19995;-68
2021/01/12 01:22:08;;;;;;;164.73;39.60;;;0.70;2201.60;;;;;;6096213;23;20002;-68
2021/01/12 01:24:33;;;;;;;205.38;41.78;;;0.70;2201.60;;;;;;6096190;23;20146;-70
2021/01/12 01:26:59;;;;;;;205.73;39.10;;;0.70;2201.60;;;;;;6096553;23;20097;-68
2021/01/12 01:29:25;;;;;;;162.90;37.67;;;0.70;2201.60;;;;;;6096755;23;20371;-69
2021/01/12 01:31:51;;;;;;;170.65;39.38;;;0.70;2201.60;;;;;;6096247;23;20085;-69
2021/01/12 01:34:16;;;;;;;197.40;39.63;;;0.70;2201.60;;;;;;6097400;23;20322;-69
2021/01/12 01:36:42;;;;;;;254.15;42.97;;;0.70;2201.60;;;;;;6099449;23;20294;-69
2021/01/12 01:39:08;;;;;;;243.90;41.13;;;0.60;2201.60;;;;;;6099146;23;20121;-69
2021/01/12 01:41:34;;;;;;;237.02;39.85;;;0.60;2201.60;;;;;;6099095;23;19994;-68
2021/01/12 01:43:59;;;;;;;209.23;42.47;;;0.60;2201.60;;;;;;6099084;23;20001;-69
2021/01/12 01:46:26;;;;;;;250.70;41.22;;;0.50;2201.60;;;;;;6098997;23;20455;-68
2021/01/12 01:48:52;;;;;;;295.67;45.60;;;0.50;2201.60;;;;;;6098283;23;19998;-67
2021/01/12 01:51:18;;;;;;;270.17;43.17;;;0.40;2201.60;;;;;;6099042;23;20414;-69
2021/01/12 01:53:45;;;;;;;306.45;45.60;;;0.40;2201.60;;;;;;6099055;23;20002;-69
2021/01/12 01:56:11;;;;;;;300.90;42.75;;;0.40;2201.60;;;;;;6098614;23;20034;-68
2021/01/12 01:58:41;;;;;;;305.83;43.33;;;0.40;2201.60;;;;;;6099372;23;19994;-68
2021/01/12 02:01:07;;;;;;;307.77;42.97;;;0.40;2201.60;;;;;;6099363;23;19994;-69
2021/01/12 02:03:44;;;;;;;362.15;42.53;;;0.30;2201.60;;;;;;6098676;23;19994;-69
2021/01/12 02:06:20;;;;;;;350.05;43.60;;;0.30;2201.60;;;;;;6099051;23;20019;-68
2021/01/12 02:09:07;;;;;;;245.23;42.00;;;0.30;2201.60;;;;;;6099029;23;20022;-70
2021/01/12 02:11:39;;;;;;;191.77;39.92;;;0.20;2201.60;;;;;;6098990;23;19995;-69
2021/01/12 02:14:09;;;;;;;350.50;43.58;;;0.20;2201.60;;;;;;6098893;23;20347;-68
2021/01/12 02:16:36;;;;;;;323.75;40.75;;;0.20;2201.60;;;;;;6098317;23;19994;-68
2021/01/12 02:19:05;;;;;;;313.52;43.28;;;0.20;2201.60;;;;;;6099287;23;19991;-70
2021/01/12 02:21:39;;;;;;;307.00;44.70;;;0.10;2201.60;;;;;;6099313;23;20491;-68
2021/01/12 02:24:06;;;;;;;249.90;44.33;;;0.10;2201.60;;;;;;6098127;23;20001;-69
2021/01/12 02:26:31;;;;;;;362.13;46.50;;;0.10;2201.60;;;;;;6098617;23;20069;-67
2021/01/12 02:28:57;;;;;;;320.42;44.55;;;0.10;2201.60;;;;;;6099299;23;20328;-69
2021/01/12 02:31:23;;;;;;;312.63;45.50;;;0.10;2201.60;;;;;;6098939;23;19994;-68
2021/01/12 02:33:51;;;;;;;269.33;43.10;;;0.10;2201.60;;;;;;6098879;23;20054;-68
2021/01/12 02:36:21;;;;;;;261.15;42.83;;;0.20;2201.60;;;;;;6099161;23;20002;-68
2021/01/12 02:38:47;;;;;;;230.65;41.65;;;0.20;2201.60;;;;;;6101102;23;19990;-67
2021/01/12 02:41:14;;;;;;;295.70;45.78;;;0.20;2201.60;;;;;;6101111;23;20065;-69
2021/01/12 02:43:42;;;;;;;301.20;44.28;;;0.20;2201.60;;;;;;6100722;23;20095;-68
2021/01/12 02:46:09;;;;;;;196.77;40.83;;;0.20;2201.60;;;;;;6100417;23;19998;-69
2021/01/12 02:48:34;;;;;;;238.13;41.17;;;0.20;2201.60;;;;;;6100943;23;20081;-69
2021/01/12 02:51:00;;;;;;;265.88;43.67;;;0.20;2201.60;;;;;;6100332;23;20002;-68
2021/01/12 02:53:26;;;;;;;247.65;42.53;;;0.10;2201.60;;;;;;6100608;23;19995;-68
2021/01/12 02:55:52;;;;;;;250.98;42.90;;;0.20;2201.60;;;;;;6100826;23;20030;-68
2021/01/12 02:58:18;;;;;;;292.10;44.50;;;0.20;2201.60;;;;;;6100583;23;19991;-70
2021/01/12 03:00:45;;;;;;;270.92;45.70;;;0.20;2201.60;;;;;;6100865;23;20001;-67
2021/01/12 03:03:11;;;;;;;246.05;42.25;;;0.20;2201.60;;;;;;6100745;23;20406;-67
2021/01/12 03:05:36;;;;;;;229.85;42.72;;;0.20;2201.60;;;;;;6100233;23;20014;-69
2021/01/12 03:08:02;;;;;;;247.48;42.60;;;0.20;2201.60;;;;;;6100160;23;20002;-68
2021/01/12 03:10:28;;;;;;;269.23;43.70;;;0.30;2201.60;;;;;;6100858;23;20089;-68
2021/01/12 03:12:54;;;;;;;262.95;45.35;;;0.20;2201.60;;;;;;6100107;23;20116;-69
2021/01/12 03:15:20;;;;;;;258.73;45.40;;;0.20;2201.60;;;;;;6100658;23;20014;-68
2021/01/12 03:17:45;;;;;;;172.75;39.80;;;0.20;2201.60;;;;;;6100707;23;19994;-68
2021/01/12 03:20:12;;;;;;;204.68;39.88;;;0.20;2201.60;;;;;;6100381;23;20074;-68
2021/01/12 03:22:41;;;;;;;211.60;38.95;;;0.30;2201.60;;;;;;6100635;23;19994;-68
2021/01/12 03:25:07;;;;;;;;;;;0.30;2201.60;;;;;;6101107;23;20020;-68
2021/01/12 03:27:33;;;;;;;165.48;38.80;;;0.30;2201.60;;;;;;6099569;23;19907;-69
2021/01/12 03:29:59;;;;;;;126.40;38.95;;;0.20;2201.60;;;;;;6100124;23;20080;-68
2021/01/12 03:32:24;;;;;;;121.40;37.33;;;0.10;2201.60;;;;;;6099201;23;20469;-68
2021/01/12 03:34:51;;;;;;;112.43;35.20;;;0.20;2201.60;;;;;;6100446;23;20006;-69
2021/01/12 03:37:16;;;;;;;107.20;35.20;;;0.10;2201.60;;;;;;6100550;23;20001;-68
2021/01/12 03:39:42;;;;;;;120.97;36.38;;;0.10;2201.60;;;;;;6099811;23;20014;-68
2021/01/12 03:42:09;;;;;;;87.07;33.25;;;0.10;2201.60;;;;;;6100491;23;19994;-68
2021/01/12 03:44:34;;;;;;;117.07;36.22;;;0.10;2201.60;;;;;;6100506;23;19999;-69
2021/01/12 03:47:00;;;;;;;109.72;35.75;;;0.00;2201.60;;;;;;6100131;23;19990;-68
2021/01/12 03:49:26;;;;;;;105.60;36.17;;;0.10;2201.60;;;;;;6100307;23;19994;-68
2021/01/12 03:51:52;;;;;;;101.50;34.90;;;0.10;2201.60;;;;;;6099694;23;20054;-68
2021/01/12 03:54:17;;;;;;;119.18;37.78;;;0.10;2201.60;;;;;;6099933;23;20302;-68
2021/01/12 03:56:43;;;;;;;105.95;34.63;;;0.10;2201.60;;;;;;6100362;23;19995;-68
2021/01/12 03:59:09;;;;;;;110.93;35.03;;;0.00;2201.60;;;;;;6099923;23;19999;-68
2021/01/12 04:01:44;;;;;;;100.68;35.72;;;0.00;2201.60;;;;;;6099421;23;19994;-67
2021/01/12 04:04:10;;;;;;;129.43;38.70;;;0.00;2201.60;;;;;;6099979;23;19998;-68
2021/01/12 04:06:36;;;;;;;129.50;38.40;;;0.00;2201.60;;;;;;6100264;23;20061;-68
2021/01/12 04:09:04;;;;;;;115.57;38.05;;;0.00;2201.60;;;;;;6098617;23;20401;-68
2021/01/12 04:11:34;;;;;;;156.35;37.78;;;0.00;2201.60;;;;;;6099780;23;19999;-68
2021/01/12 04:14:03;;;;;;;129.93;36.97;;;0.00;2201.60;;;;;;6099517;23;20002;-68
2021/01/12 04:16:30;;;;;;;115.35;37.58;;;0.00;2201.60;;;;;;6098775;23;20006;-67
2021/01/12 04:18:56;;;;;;;103.57;37.58;;;0.00;2201.60;;;;;;6100169;23;19994;-68
2021/01/12 04:21:21;;;;;;;95.55;34.92;;;0.00;2201.60;;;;;;6098875;23;20424;-68
2021/01/12 04:23:47;;;;;;;100.70;35.95;;;0.10;2201.60;;;;;;6100036;23;19995;-68
2021/01/12 04:26:13;;;;;;;113.85;37.95;;;0.20;2201.60;;;;;;6100197;23;20006;-69
2021/01/12 04:28:39;;;;;;;111.85;35.63;;;0.10;2201.60;;;;;;6099332;23;20002;-68
2021/01/12 04:31:05;;;;;;;109.78;35.70;;;0.00;2201.60;;;;;;6099895;23;20319;-68
2021/01/12 04:33:31;;;;;;;129.27;37.00;;;0.00;2201.60;;;;;;6099974;23;19995;-67
2021/01/12 04:35:57;;;;;;;99.10;38.20;;;0.10;2201.60;;;;;;6099245;23;20002;-68
2021/01/12 04:38:23;;;;;;;116.68;37.90;;;0.10;2201.60;;;;;;6099337;23;19998;-69
2021/01/12 04:40:48;;;;;;;101.40;36.95;;;0.20;2201.60;;;;;;6099725;23;20033;-67
2021/01/12 04:43:14;;;;;;;123.32;39.35;;;0.20;2201.60;;;;;;6098892;23;19999;-70
2021/01/12 04:45:40;;;;;;;104.63;37.15;;;0.20;2201.60;;;;;;6098869;23;20294;-69
2021/01/12 04:48:07;;;;;;;109.60;37.20;;;0.20;2201.60;;;;;;6099123;23;19994;-67
2021/01/12 04:50:33;;;;;;;106.20;37.72;;;0.30;2201.60;;;;;;6098849;23;20386;-68
2021/01/12 04:52:59;;;;;;;104.47;36.25;;;0.30;2201.60;;;;;;6099358;23;19994;-66
2021/01/12 04:55:25;;;;;;;99.47;35.35;;;0.40;2201.60;;;;;;6099669;23;19999;-67
2021/01/12 04:57:52;;;;;;;94.78;33.22;;;0.40;2201.60;;;;;;6099391;23;19994;-68
2021/01/12 05:00:26;;;;;;;101.43;35.80;;;0.40;2201.60;;;;;;6098841;23;19995;-68
2021/01/12 05:03:05;;;;;;;101.85;35.13;;;0.40;2201.60;;;;;;6099321;23;20406;-68
2021/01/12 05:05:39;;;;;;;98.32;37.47;;;0.40;2201.60;;;;;;6099083;23;20002;-68
2021/01/12 05:08:07;;;;;;;106.35;35.58;;;0.40;2201.60;;;;;;6099282;23;20001;-69
2021/01/12 05:10:36;;;;;;;89.25;33.40;;;0.40;2201.60;;;;;;6099418;23;20345;-69
2021/01/12 05:13:05;;;;;;;92.53;34.10;;;0.40;2201.60;;;;;;6098975;23;20440;-68
2021/01/12 05:15:31;;;;;;;;;;;0.40;2201.60;;;;;;6099006;23;20314;-68
2021/01/12 05:17:59;;;;;;;88.18;33.88;;;0.40;2201.60;;;;;;6098992;23;20208;-68
2021/01/12 05:20:26;;;;;;;97.50;34.35;;;0.40;2201.60;;;;;;6099313;23;20001;-68
2021/01/12 05:23:13;;;;;;;98.13;34.67;;;0.30;2201.60;;;;;;6098850;23;20310;-68
2021/01/12 05:25:40;;;;;;;87.22;33.00;;;0.30;2201.60;;;;;;6098318;23;20046;-68
2021/01/12 05:28:12;;;;;;;100.68;35.42;;;0.40;2201.60;;;;;;6099228;23;19998;-70
2021/01/12 05:30:38;;;;;;;88.65;34.88;;;0.40;2201.60;;;;;;6099121;23;19998;-68
2021/01/12 05:33:05;;;;;;;89.30;34.75;;;0.40;2201.60;;;;;;6098878;23;20074;-68
2021/01/12 05:35:40;;;;;;;100.47;37.60;;;0.30;2201.60;;;;;;6098885;23;19998;-69
2021/01/12 05:38:09;;;;;;;95.07;35.22;;;0.30;2201.60;;;;;;6099618;23;19991;-68
2021/01/12 05:40:41;;;;;;;103.13;38.72;;;0.40;2201.60;;;;;;6099083;23;20349;-70
2021/01/12 05:43:16;;;;;;;96.28;36.55;;;0.30;2201.60;;;;;;6099494;23;20018;-67
2021/01/12 05:45:43;;;;;;;107.55;38.17;;;0.40;2201.60;;;;;;6098794;23;20054;-69
2021/01/12 05:48:11;;;;;;;110.30;36.38;;;0.40;2201.60;;;;;;6099461;23;20026;-68
2021/01/12 05:50:38;;;;;;;99.78;37.33;;;0.50;2201.60;;;;;;6098942;23;19999;-69
2021/01/12 05:53:06;;;;;;;100.93;37.75;;;0.50;2201.60;;;;;;6098764;23;19990;-68
2021/01/12 05:55:40;;;;;;;104.93;36.85;;;0.40;2201.60;;;;;;6098643;23;20026;-68
2021/01/12 05:58:27;;;;;;;102.70;37.28;;;0.40;2201.60;;;;;;6099414;23;20002;-68
2021/01/12 06:00:54;;;;;;;93.85;36.58;;;0.40;2201.60;;;;;;6099077;23;19995;-68
2021/01/12 06:03:24;;;;;;;103.88;38.45;;;0.40;2201.60;;;;;;6099313;23;20005;-69
2021/01/12 06:05:51;;;;;;;94.28;37.00;;;0.40;2201.60;;;;;;6099050;23;20073;-69
2021/01/12 06:08:17;;;;;;;92.63;35.35;;;0.40;2201.60;;;;;;6098701;23;20413;-69
2021/01/12 06:10:44;;;;;;;98.90;36.88;;;0.50;2201.60;;;;;;6099158;23;19994;-69
2021/01/12 06:13:18;;;;;;;97.30;36.92;;;0.40;2201.60;;;;;;6101067;23;20054;-68
2021/01/12 06:15:45;;;;;;;93.60;36.03;;;0.50;2201.60;;;;;;6101086;23;20002;-70
2021/01/12 06:18:18;;;;;;;82.80;33.08;;;0.50;2201.60;;;;;;6101026;23;20001;-68
2021/01/12 06:20:49;;;;;;;82.75;33.70;;;0.50;2201.60;;;;;;6100577;23;19999;-69
2021/01/12 06:23:26;;;;;;;87.05;36.30;;;0.40;2201.60;;;;;;6100396;23;20070;-68
2021/01/12 06:25:53;;;;;;;93.57;36.03;;;0.30;2201.60;;;;;;6100735;23;20022;-69
2021/01/12 06:28:19;;;;;;;86.90;35.35;;;0.30;2201.60;;;;;;6100593;23;20298;-67
2021/01/12 06:30:45;;;;;;;84.72;35.20;;;0.40;2201.60;;;;;;6100529;23;19994;-68
2021/01/12 06:33:12;;;;;;;80.32;34.50;;;0.40;2201.60;;;;;;6101151;23;19991;-68
2021/01/12 06:35:40;;;;;;;79.97;33.78;;;0.40;2201.60;;;;;;6100493;23;20030;-68
2021/01/12 06:38:07;;;;;;;75.30;33.28;;;0.40;2201.60;;;;;;6100819;23;20001;-69
2021/01/12 06:40:35;;;;;;;72.65;34.17;;;0.40;2201.60;;;;;;6100718;23;20394;-69
2021/01/12 06:43:01;;;;;;;77.22;34.45;;;0.40;2201.60;;;;;;6100823;23;20342;-69
2021/01/12 06:45:28;;;;;;;78.43;33.97;;;0.40;2201.60;;;;;;6100409;23;20053;-68
2021/01/12 06:47:54;;;;;;;80.75;34.42;;;0.40;2201.60;;;;;;6101063;23;20080;-68
2021/01/12 06:50:23;;;;;;;80.35;35.55;;;0.40;2201.60;;;;;;6100359;23;19995;-69
2021/01/12 06:52:50;;;;;;;;;;;0.40;2201.60;;;;;;6101160;23;20050;-68
2021/01/12 06:55:18;;;;;;;76.70;32.67;;;0.40;2201.60;;;;;;6100661;23;19916;-69
2021/01/12 06:57:50;;;;;;;88.38;34.15;;;0.40;2201.60;;;;;;6100546;23;20390;-68
2021/01/12 07:00:18;;;;;;;75.82;34.30;;;0.40;2201.60;;;;;;6101032;23;20078;-69
2021/01/12 07:02:54;;;;;;;82.53;34.67;;;0.40;2201.60;;;;;;6100654;23;20017;-68
2021/01/12 07:05:20;;;;;;;85.10;35.20;;;0.40;2201.60;;;;;;6100627;23;20002;-68
2021/01/12 07:07:50;;;;;;;82.63;33.70;;;0.30;2201.60;;;;;;6100937;23;19994;-68
2021/01/12 07:10:19;;;;;;;81.10;35.60;;;0.20;2201.60;;;;;;6100229;23;20084;-69
2021/01/12 07:12:46;;;;;;;80.65;34.90;;;0.20;2201.60;;;;;;6100922;23;19997;-67
2021/01/12 07:15:20;;;;;;;80.65;35.60;;;0.10;2201.60;;;;;;6100376;23;20382;-69
2021/01/12 07:17:48;;;;;;;82.07;34.70;;;0.10;2201.60;;;;;;6100559;23;19995;-68
2021/01/12 07:20:24;;;;;;;86.97;35.72;;;0.10;2201.60;;;;;;6100401;23;20390;-69
2021/01/12 07:23:08;;;;;;;75.60;32.80;;;0.10;2201.60;;;;;;6100193;23;19995;-69
2021/01/12 07:25:35;;;;;;;75.38;32.83;;;0.10;2201.60;;;;;;6100314;23;20061;-70
2021/01/12 07:28:27;;;;;;;79.22;33.17;;;0.20;2201.60;;;;;;6100713;23;20393;-68
2021/01/12 07:30:56;;;;;;;80.70;34.67;;;0.40;2201.60;;;;;;6093448;23;20002;-68
2021/01/12 07:33:40;;;;;;;78.90;33.75;;;0.50;2201.60;;;;;;6100644;23;20008;-68
2021/01/12 07:36:07;;;;;;;81.35;34.53;;;0.50;2201.60;;;;;;6100535;23;20077;-68
2021/01/12 07:38:32;;;;;;;80.97;31.60;;;0.60;2201.60;;;;;;6099905;23;20378;-70
2021/01/12 07:41:00;;;;;;;81.28;36.28;;;0.60;2201.60;;;;;;6100186;23;20049;-68
2021/01/12 07:43:27;;;;;;;72.45;34.50;;;0.70;2201.60;;;;;;6100228;23;19995;-70
2021/01/12 07:45:54;;;;;;;84.70;38.22;;;0.80;2201.60;;;;;;6100164;23;19999;-67
2021/01/12 07:48:21;;;;;;;81.45;34.63;;;0.90;2201.60;;;;;;6100473;23;19994;-67
2021/01/12 07:50:51;;;;;;;81.82;35.00;;;25.60;2201.60;;;;;;6100087;23;20002;-69
2021/01/12 07:53:17;;;;;;;78.47;36.13;;;25.60;2201.60;;;;;;6100223;23;20017;-68
2021/01/12 07:55:45;;;;;;;86.25;38.08;;;25.70;2201.60;;;;;;6099834;23;20002;-69
2021/01/12 07:58:12;;;;;;;81.68;35.28;;;25.80;2201.60;;;;;;6100012;23;20081;-67
2021/01/12 08:00:38;;;;;;;79.90;35.20;;;25.90;2201.60;;;;;;6099985;23;19994;-68
2021/01/12 08:03:05;;;;;;;78.38;35.47;;;25.90;2201.60;;;;;;6100012;23;19994;-69
2021/01/12 08:05:32;;;;;;;75.28;34.75;;;26.00;2201.60;;;;;;6099607;23;19995;-68
2021/01/12 08:08:05;;;;;;;78.47;35.10;;;26.10;2201.60;;;;;;6099908;23;20334;-68
2021/01/12 08:10:32;;;;;;;75.00;33.15;;;26.20;2201.60;;;;;;6099869;23;20002;-69
2021/01/12 08:13:14;;;;;;;65.38;30.45;;;26.40;2201.60;;;;;;6099581;23;19990;-71
2021/01/12 08:15:43;;;;;;;62.45;28.67;;;26.50;2201.60;;;;;;6099145;23;20030;-69
2021/01/12 08:18:16;;;;;;;;;;;26.50;2201.60;;;;;;6100095;23;20016;-69
2021/01/12 08:20:43;;;;;;;68.05;30.88;;;51.20;2227.20;;;;;;6099554;23;19908;-69
2021/01/12 08:23:11;;;;;;;68.15;30.98;;;51.30;2227.20;;;;;;6100107;23;20290;-69
2021/01/12 08:25:37;;;;;;;67.05;31.30;;;51.40;2227.20;;;;;;6099832;23;20042;-68
2021/01/12 08:28:04;;;;;;;67.95;32.08;;;51.50;2227.20;;;;;;6098950;23;20003;-68
2021/01/12 08:30:33;;;;;;;71.75;34.00;;;51.50;2227.20;;;;;;6100032;23;20006;-70
2021/01/12 08:33:09;;;;;;;63.67;31.73;;;51.50;2227.20;;;;;;6099705;23;20354;-69
2021/01/12 08:35:44;;;;;;;68.28;31.10;;;51.60;2227.20;;;;;;6099071;23;20061;-70
2021/01/12 08:38:12;;;;;;;68.10;32.15;;;51.70;2227.20;;;;;;6100011;23;20148;-68
2021/01/12 08:40:40;;;;;;;61.85;31.58;;;51.70;2227.20;;;;;;6098935;23;20681;-68
2021/01/12 08:43:15;;;;;;;63.53;32.05;;;51.80;2227.20;;;;;;6099615;23;19994;-69
2021/01/12 08:45:42;;;;;;;57.30;29.83;;;51.80;2227.20;;;;;;6099179;23;19998;-68
2021/01/12 08:48:10;;;;;;;62.60;32.10;;;51.90;2227.20;;;;;;6098631;23;20283;-69
2021/01/12 08:50:35;;;;;;;60.00;29.85;;;52.10;2227.20;;;;;;6099113;23;20006;-68
2021/01/12 08:53:01;;;;;;;62.72;30.73;;;76.90;2227.20;;;;;;6099432;23;19994;-69
2021/01/12 08:55:28;;;;;;;63.08;28.73;;;52.10;2227.20;;;;;;6098394;23;20030;-70
2021/01/12 08:58:00;;;;;;;57.58;29.38;;;52.00;2227.20;;;;;;6099773;23;19995;-69
2021/01/12 09:00:32;;;;;;;60.83;29.52;;;52.00;2227.20;;;;;;6099532;23;20025;-68
2021/01/12 09:02:59;;;;;;;64.57;32.15;;;51.70;2227.20;;;;;;6099096;23;19994;-68
2021/01/12 09:05:25;;;;;;;67.28;33.05;;;51.60;2227.20;;;;;;6099734;23;19998;-70
2021/01/12 09:08:02;;;;;;;60.20;29.05;;;51.60;2227.20;;;;;;6099702;23;20030;-69
2021/01/12 09:10:28;;;;;;;64.35;32.42;;;51.60;2227.20;;;;;;6098605;23;20073;-69
2021/01/12 09:12:54;;;;;;;65.18;31.60;;;51.80;2227.20;;;;;;6098198;23;19994;-67
2021/01/12 09:15:28;;;;;;;62.83;31.90;;;52.00;2227.20;;;;;;6097670;23;20318;-68
2021/01/12 09:18:07;;;;;;;73.05;32.00;;;51.90;2227.20;;;;;;6098948;23;19995;-68
2021/01/12 09:20:41;;;;;;;62.63;30.70;;;52.00;2227.20;;;;;;6099657;23;19990;-68
2021/01/12 09:23:13;;;;;;;65.45;32.88;;;52.00;2227.20;;;;;;6097549;23;20097;-69
2021/01/12 09:25:40;;;;;;;67.53;31.10;;;52.10;2227.20;;;;;;6096043;23;20014;-69
2021/01/12 09:28:15;;;;;;;64.75;33.08;;;52.10;2227.20;;;;;;6096836;23;20394;-69
2021/01/12 09:30:42;;;;;;;69.40;34.50;;;76.80;2227.20;;;;;;6096522;23;19999;-69
2021/01/12 09:33:11;;;;;;;63.00;32.60;;;52.10;2227.20;;;;;;6096329;23;19998;-70
2021/01/12 09:35:36;;;;;;;;;;;52.10;2227.20;;;;;;6096396;23;20013;-70
2021/01/12 09:38:03;;;;;;;63.60;31.35;;;52.00;2227.20;;;;;;6096160;23;19901;-69
2021/01/12 09:40:29;;;;;;;70.82;34.30;;;51.90;2227.20;;;;;;6096812;23;20085;-70
2021/01/12 09:42:57;;;;;;;70.50;33.00;;;51.80;2227.20;;;;;;6096400;23;20120;-69
2021/01/12 09:45:24;;;;;;;78.60;35.22;;;51.70;2227.20;;;;;;6095908;23;20473;-71
2021/01/12 09:47:50;;;;;;;78.93;34.92;;;51.60;2227.20;;;;;;6096348;23;19998;-68
2021/01/12 09:50:16;;;;;;;68.22;34.88;;;51.60;2227.20;;;;;;6095903;23;20001;-69
2021/01/12 09:52:42;;;;;;;73.32;34.75;;;51.60;2227.20;;;;;;6096112;23;20014;-71
2021/01/12 09:55:08;;;;;;;74.90;35.53;;;51.60;2227.20;;;;;;6096252;23;20002;-70
2021/01/12 09:57:37;;;;;;;79.70;37.28;;;51.60;2227.20;;;;;;6096362;23;19994;-70
2021/01/12 10:00:10;;;;;;;81.25;36.95;;;51.70;2227.20;;;;;;6096350;23;20077;-70
2021/01/12 10:02:35;;;;;;;70.70;34.03;;;51.80;2227.20;;;;;;6096270;23;20054;-70
2021/01/12 10:08:25;;;;;;;76.90;36.63;;;51.80;2227.20;;;;;;6095053;23;20018;-69
2021/01/12 10:10:55;;;;;;;64.72;32.58;;;51.80;2227.20;;;;;;6095415;23;20002;-70
2021/01/12 10:13:21;;;;;;;76.90;33.60;;;51.80;2227.20;;;;;;6095738;23;20085;-70
2021/01/12 10:15:47;;;;;;;78.80;38.95;;;51.80;2227.20;;;;;;6096299;23;20007;-71
2021/01/12 10:18:13;;;;;;;78.13;35.42;;;51.80;2227.20;;;;;;6095655;23;20369;-70
2021/01/12 10:20:40;;;;;;;66.55;33.28;;;52.00;2227.20;;;;;;6095432;23;20111;-69
2021/01/12 10:23:06;;;;;;;75.97;35.85;;;51.90;2227.20;;;;;;6096334;23;19999;-70
2021/01/12 10:25:33;;;;;;;70.00;33.05;;;52.00;2227.20;;;;;;6096277;23;20019;-70
2021/01/12 10:28:00;;;;;;;71.82;37.28;;;51.80;2227.20;;;;;;6095985;23;20501;-70
2021/01/12 10:30:26;;;;;;;72.95;34.42;;;51.80;2227.20;;;;;;6096303;23;20567;-71
2021/01/12 10:32:52;;;;;;;69.57;32.67;;;52.10;2227.20;;;;;;6096379;23;20022;-70
2021/01/12 10:35:19;;;;;;;71.32;34.72;;;76.80;2227.20;;;;;;6095941;23;20110;-71
2021/01/12 10:37:46;;;;;;;65.78;33.60;;;76.90;2227.20;;;;;;6095930;23;20005;-71
2021/01/12 10:40:13;;;;;;;83.00;36.78;;;77.00;2227.20;;;;;;6096449;23;20271;-70
2021/01/12 10:42:41;;;;;;;63.95;33.38;;;77.20;2227.20;;;;;;6096147;23;20003;-69
2021/01/12 10:45:08;;;;;;;71.28;35.10;;;77.40;2227.20;;;;;;6096215;23;20057;-69
2021/01/12 10:47:35;;;;;;;70.57;33.30;;;77.30;2227.20;;;;;;6095983;23;20005;-70
2021/01/12 10:50:02;;;;;;;70.88;32.88;;;77.30;2227.20;;;;;;6095713;23;20005;-69
2021/01/12 10:52:32;;;;;;;68.72;36.50;;;77.20;2227.20;;;;;;6096510;23;20077;-70
2021/01/12 10:54:58;;;;;;;70.35;34.22;;;77.00;2227.20;;;;;;6096415;23;20038;-70
2021/01/12 10:57:24;;;;;;;77.90;34.92;;;76.90;2227.20;;;;;;6095875;23;20002;-69
2021/01/12 10:59:50;;;;;;;64.65;32.40;;;77.20;2227.20;;;;;;6097078;23;20026;-69
2021/01/12 11:02:19;;;;;;;72.32;36.72;;;77.30;2227.20;;;;;;6098868;23;20313;-70
2021/01/12 11:04:45;;;;;;;78.97;36.45;;;77.40;2227.20;;;;;;6099851;23;20006;-70
2021/01/12 11:07:11;;;;;;;76.68;35.67;;;77.50;2227.20;;;;;;6099058;23;19995;-69
2021/01/12 11:09:37;;;;;;;69.63;36.38;;;77.60;2227.20;;;;;;6099619;23;19994;-71
2021/01/12 11:12:06;;;;;;;71.20;33.78;;;77.50;2227.20;;;;;;6100095;23;19998;-69
2021/01/12 11:14:32;;;;;;;72.07;34.17;;;77.30;2227.20;;;;;;6099944;23;19999;-70
2021/01/12 11:16:59;;;;;;;67.65;33.40;;;77.20;2227.20;;;;;;6100731;23;19998;-69
2021/01/12 11:19:25;;;;;;;72.07;33.10;;;77.40;2227.20;;;;;;6100067;23;19994;-70
2021/01/12 11:21:51;;;;;;;71.32;33.58;;;77.40;2227.20;;;;;;6101147;23;20286;-70
2021/01/12 11:24:20;;;;;;;68.93;33.40;;;77.30;2227.20;;;;;;6100093;23;20086;-70
2021/01/12 11:26:47;;;;;;;75.45;35.03;;;77.20;2227.20;;;;;;6100369;23;20069;-69
2021/01/12 11:29:13;;;;;;;69.07;32.60;;;77.00;2227.20;;;;;;6100044;23;20026;-69
2021/01/12 11:31:40;;;;;;;64.63;32.55;;;77.00;2227.20;;;;;;6100010;23;20034;-68
2021/01/12 11:34:06;;;;;;;72.30;34.30;;;76.90;2227.20;;;;;;6099533;23;20053;-71
2021/01/12 11:36:42;;;;;;;74.18;33.83;;;76.90;2227.20;;;;;;6100250;23;19998;-71
2021/01/12 11:39:16;;;;;;;76.88;36.63;;;76.80;2227.20;;;;;;6100164;23;20102;-69
2021/01/12 11:41:48;;;;;;;69.50;33.85;;;76.80;2227.20;;;;;;6095203;23;20322;-70
2021/01/12 11:44:14;;;;;;;72.47;35.33;;;76.80;2227.20;;;;;;6100186;23;20414;-69
2021/01/12 11:46:41;;;;;;;68.88;34.30;;;52.10;2227.20;;;;;;6099824;23;19995;-69
2021/01/12 11:49:07;;;;;;;70.20;34.70;;;52.10;2227.20;;;;;;6095205;23;20353;-71
2021/01/12 11:51:39;;;;;;;69.78;35.40;;;52.00;2227.20;;;;;;6094625;23;20037;-69
2021/01/12 11:54:07;;;;;;;70.75;34.90;;;52.00;2227.20;;;;;;6097359;23;19995;-69
2021/01/12 11:56:35;;;;;;;67.68;34.10;;;51.80;2227.20;;;;;;6096943;23;19994;-69
2021/01/12 11:59:07;;;;;;;71.63;34.88;;;51.60;2227.20;;;;;;6098766;23;20034;-71
2021/01/12 12:01:54;;;;;;;74.78;34.40;;;51.40;2227.20;;;;;;6098818;23;19994;-71
2021/01/12 12:04:34;;;;;;;72.70;33.60;;;26.50;2201.60;;;;;;6099048;23;20077;-70
2021/01/12 12:07:08;;;;;;;;;;;26.30;2201.60;;;;;;6074354;23;20002;-69
2021/01/12 12:09:37;;;;;;;66.60;31.65;;;26.30;2201.60;;;;;;6099610;23;19901;-69
2021/01/12 12:12:35;;;;;;;73.20;33.28;;;26.20;2201.60;;;;;;6099202;23;20036;-72
2021/01/12 12:15:15;;;;;;;58.75;26.40;;;26.20;2201.60;;;;;;6099423;23;20050;-71
2021/01/12 12:17:44;;;;;;;75.75;33.92;;;26.10;2201.60;;;;;;6099160;23;20366;-71
2021/01/12 12:23:12;;;;;;;76.15;35.28;;;26.10;2201.60;;;;;;6098206;23;20005;-70
2021/01/12 12:25:51;;;;;;;67.63;32.22;;;26.10;2201.60;;;;;;6099305;23;20014;-72